Time;durP1;ratioP1;P1;durP2;ratioP2;P2;SDS_P1;SDS_P2;PMS_P1;PMS_P2;Temp;Humidity;BMP_temperature;BMP_pressure;BME280_temperature;BME280_humidity;BME280_pressure;Samples;Min_cycle;Max_cycle;Signal;HPM_P1;HPM_P2
2022/01/03 00:00:10;;;;;;;15.73;2.80;;;;;;;9.67;87.90;100999.03;5095027;28;20052;-71
2022/01/03 00:02:36;;;;;;;16.63;2.58;;;;;;;9.67;86.72;100998.22;5095347;28;20027;-72
2022/01/03 00:05:01;;;;;;;14.52;2.20;;;;;;;9.67;86.63;100993.88;5095225;28;20024;-72
2022/01/03 00:07:27;;;;;;;19.38;2.63;;;;;;;9.65;88.22;100997.59;5094921;28;20035;-71
2022/01/03 00:09:53;;;;;;;16.25;2.55;;;;;;;9.59;87.28;101003.47;5076955;28;20016;-72
2022/01/03 00:12:21;;;;;;;18.45;2.75;;;;;;;9.49;87.58;100991.63;5094823;28;20028;-71
2022/01/03 00:14:48;;;;;;;22.48;2.75;;;;;;;9.49;87.36;100999.34;5094958;28;20024;-71
2022/01/03 00:17:14;;;;;;;25.52;3.17;;;;;;;9.49;87.93;100993.38;5094788;28;20090;-72
2022/01/03 00:19:39;;;;;;;20.77;2.83;;;;;;;9.42;87.49;101006.16;5076562;28;20020;-71
2022/01/03 00:22:07;;;;;;;23.30;2.85;;;;;;;9.38;87.91;101009.25;5094089;28;20062;-71
2022/01/03 00:24:35;;;;;;;23.60;3.70;;;;;;;9.41;88.36;101004.56;5059152;28;20451;-72
2022/01/03 00:27:04;;;;;;;26.55;4.38;;;;;;;9.37;87.48;101010.25;5094621;28;20020;-72
2022/01/03 00:29:42;;;;;;;17.42;2.88;;;;;;;9.41;87.56;101014.09;5094622;28;20016;-73
2022/01/03 00:32:09;;;;;;;23.05;2.90;;;;;;;9.13;87.23;100969.97;5094702;28;20023;-72
2022/01/03 00:34:36;;;;;;;27.58;3.20;;;;;;;9.38;86.77;101007.50;5076293;28;20035;-72
2022/01/03 00:37:02;;;;;;;25.25;3.05;;;;;;;9.34;87.62;101005.44;5094219;28;20027;-71
2022/01/03 00:39:30;;;;;;;21.98;2.78;;;;;;;9.29;87.84;100995.63;5094247;28;20024;-72
2022/01/03 00:41:58;;;;;;;21.08;3.20;;;;;;;9.30;87.60;101004.97;5076167;28;20012;-72
2022/01/03 00:44:24;;;;;;;21.35;2.83;;;;;;;9.25;87.49;100995.16;5076041;28;20466;-72
2022/01/03 00:46:51;;;;;;;17.25;3.05;;;;;;;9.26;87.29;101001.94;5094021;28;20111;-71
2022/01/03 00:49:17;;;;;;;21.30;2.80;;;;;;;9.27;86.70;100997.59;5094554;28;20066;-71
2022/01/03 00:51:42;;;;;;;16.00;2.65;;;;;;;9.24;86.86;100995.34;5094692;28;20028;-72
2022/01/03 00:54:07;;;;;;;20.85;3.17;;;;;;;9.17;86.73;100990.06;5093025;28;20028;-71
2022/01/03 00:56:38;;;;;;;22.40;2.75;;;;;;;9.19;87.38;101002.81;5092721;28;20044;-72
2022/01/03 00:59:07;;;;;;;25.70;3.35;;;;;;;9.19;87.17;100998.44;5075945;28;20381;-73
2022/01/03 01:01:35;;;;;;;27.58;2.92;;;;;;;9.14;86.63;101002.50;5075820;28;20016;-72
2022/01/03 01:04:02;;;;;;;32.00;3.60;;;;;;;9.13;86.91;101000.91;5093940;28;20023;-72
2022/01/03 01:06:33;;;;;;;18.50;2.60;;;;;;;9.07;87.49;101011.91;5094539;28;20020;-72
2022/01/03 01:09:00;;;;;;;22.65;2.80;;;;;;;9.13;86.65;101003.50;5075747;28;20051;-71
2022/01/03 01:11:28;;;;;;;28.30;3.17;;;;;;;9.11;87.09;101013.97;5093746;28;20085;-72
2022/01/03 01:13:54;;;;;;;25.13;2.92;;;;;;;9.11;86.31;101008.81;5093786;28;20086;-71
2022/01/03 01:16:20;;;;;;;18.48;2.80;;;;;;;9.11;86.57;101002.84;5075722;28;20482;-73
2022/01/03 01:18:45;;;;;;;29.58;3.33;;;;;;;9.09;86.45;101003.03;5093742;28;20024;-71
2022/01/03 01:21:10;;;;;;;17.50;2.53;;;;;;;9.09;86.97;101010.78;5075615;28;20039;-71
2022/01/03 01:23:40;;;;;;;23.33;3.35;;;;;;;9.05;86.21;101004.34;5093679;28;20016;-72
2022/01/03 01:28:49;;;;;;;24.75;3.38;;;;;;;9.02;86.58;101010.63;5094184;28;20034;-71
2022/01/03 01:31:20;;;;;;;25.27;3.05;;;;;;;9.00;85.92;101007.41;5093467;28;20024;-71
2022/01/03 01:33:50;;;;;;;24.52;3.47;;;;;;;9.07;85.34;101009.34;5093599;28;20032;-71
2022/01/03 01:36:16;;;;;;;21.60;2.95;;;;;;;9.04;86.24;101013.84;5093548;28;20024;-71
2022/01/03 01:38:47;;;;;;;24.00;3.63;;;;;;;8.99;86.10;101010.97;5099392;28;20383;-72
2022/01/03 01:41:14;;;;;;;26.20;3.22;;;;;;;9.06;85.75;101016.25;5100245;28;20028;-72
2022/01/03 01:43:45;;;;;;;20.92;3.00;;;;;;;8.98;86.25;101016.31;5100180;28;20070;-72
2022/01/03 01:46:21;;;;;;;22.55;2.83;;;;;;;8.91;86.54;101013.59;5082141;28;20020;-72
2022/01/03 01:48:49;;;;;;;23.25;3.42;;;;;;;8.92;85.73;101011.81;5100193;28;20031;-72
2022/01/03 01:51:17;;;;;;;27.05;3.72;;;;;;;8.94;86.54;101018.41;5100149;28;20111;-72
2022/01/03 01:53:48;;;;;;;27.67;3.60;;;;;;;8.94;86.08;101010.69;5100064;28;20031;-72
2022/01/03 01:56:25;;;;;;;28.30;3.20;;;;;;;8.99;85.94;101013.56;5099860;28;20048;-72
2022/01/03 01:59:20;;;;;;;25.52;3.15;;;;;;;9.00;85.41;101022.09;5100107;28;20077;-72
2022/01/03 02:01:57;;;;;;;23.40;2.78;;;;;;;9.06;85.36;101018.81;5100662;28;20016;-72
2022/01/03 02:04:34;;;;;;;21.23;3.03;;;;;;;9.06;85.90;101020.59;5100391;28;20028;-71
2022/01/03 02:07:21;;;;;;;21.88;3.00;;;;;;;9.07;86.15;101020.44;5081805;28;20429;-71
2022/01/03 02:10:12;;;;;;;17.48;3.50;;;;;;;9.08;86.17;101024.63;5100528;28;20035;-72
2022/01/03 02:12:43;;;;;;;23.90;3.05;;;;;;;9.00;85.88;101030.63;5100519;28;20024;-71
2022/01/03 02:15:13;;;;;;;28.10;3.20;;;;;;;8.91;87.50;101031.63;5082001;28;20093;-71
2022/01/03 02:17:40;;;;;;;32.35;4.07;;;;;;;8.97;86.79;101032.72;5100430;28;20463;-72
2022/01/03 02:20:08;;;;;;;25.83;3.45;;;;;;;8.91;87.12;101031.63;5099953;28;20082;-72
2022/01/03 02:22:36;;;;;;;20.35;3.28;;;;;;;9.00;86.60;101038.34;5099913;28;20520;-72
2022/01/03 02:25:02;;;;;;;27.23;3.17;;;;;;;9.03;86.09;101038.03;5082410;28;20111;-72
2022/01/03 02:27:28;;;;;;;23.73;3.13;;;;;;;8.93;86.62;101040.00;5099849;28;20105;-71
2022/01/03 02:29:54;;;;;;;27.55;3.65;;;;;;;8.94;86.96;101041.59;5100341;28;20024;-71
2022/01/03 02:32:19;;;;;;;30.88;5.50;;;;;;;8.93;86.86;101050.31;5099706;28;20368;-72
2022/01/03 02:34:44;;;;;;;25.55;3.45;;;;;;;8.93;86.72;101034.84;5081533;28;20034;-71
2022/01/03 02:37:10;;;;;;;28.52;3.50;;;;;;;8.86;87.28;101044.25;5099763;28;20024;-72
2022/01/03 02:39:37;;;;;;;24.48;2.95;;;;;;;8.96;86.11;101039.66;5099749;28;20359;-71
2022/01/03 02:42:03;;;;;;;19.77;2.97;;;;;;;8.95;86.83;101045.00;5099734;28;20055;-72
2022/01/03 02:44:28;;;;;;;29.35;3.45;;;;;;;8.99;86.10;101039.31;5099713;28;20028;-72
2022/01/03 02:46:53;;;;;;;23.02;2.78;;;;;;;9.06;85.85;101033.50;5099704;28;20024;-71
2022/01/03 02:49:18;;;;;;;26.70;3.95;;;;;;;9.02;86.48;101033.84;5097176;28;20020;-72
2022/01/03 02:51:44;;;;;;;32.67;3.72;;;;;;;8.99;86.27;101028.22;5096719;28;20028;-71
2022/01/03 02:54:11;;;;;;;27.38;3.20;;;;;;;8.98;87.48;101030.00;5078208;28;20027;-71
2022/01/03 02:56:36;;;;;;;24.45;3.10;;;;;;;8.96;86.96;101020.84;5096209;28;20455;-71
2022/01/03 02:59:10;;;;;;;25.63;3.70;;;;;;;8.88;86.81;101031.19;5078233;28;20106;-72
2022/01/03 03:01:35;;;;;;;30.70;4.10;;;;;;;8.88;87.08;101023.44;5096302;28;20034;-72
2022/01/03 03:04:00;;;;;;;31.88;3.38;;;;;;;8.91;87.05;101023.91;5096774;28;20020;-71
2022/01/03 03:06:29;;;;;;;31.55;3.58;;;;;;;8.86;87.56;101028.78;5096163;28;20478;-71
2022/01/03 03:08:54;;;;;;;27.38;3.53;;;;;;;8.90;87.58;101027.47;5096088;28;20028;-72
2022/01/03 03:11:19;;;;;;;27.17;3.42;;;;;;;8.92;86.82;101027.28;5095959;28;20348;-72
2022/01/03 03:13:45;;;;;;;36.42;4.00;;;;;;;8.91;87.21;101034.22;5077865;28;20024;-72
2022/01/03 03:16:10;;;;;;;38.55;4.07;;;;;;;9.00;87.13;101022.09;5095974;28;20110;-72
2022/01/03 03:18:35;;;;;;;30.40;3.47;;;;;;;8.97;86.82;101022.44;5077722;28;20024;-72
2022/01/03 03:21:00;;;;;;;35.22;3.72;;;;;;;8.95;86.93;101019.25;5094871;28;20410;-72
2022/01/03 03:23:27;;;;;;;25.73;2.90;;;;;;;8.75;87.10;100993.09;5095070;28;20032;-73
2022/01/03 03:25:52;;;;;;;27.23;4.38;;;;;;;8.90;87.38;101021.50;5077335;28;20023;-72
2022/01/03 03:28:18;;;;;;;27.40;3.83;;;;;;;8.91;87.66;101033.41;5095561;28;20070;-72
2022/01/03 03:30:47;;;;;;;32.85;3.50;;;;;;;8.85;88.06;101014.28;5096053;28;20519;-72
2022/01/03 03:33:16;;;;;;;30.85;3.92;;;;;;;8.87;87.09;101017.50;5077442;28;20359;-72
2022/01/03 03:35:42;;;;;;;31.38;3.38;;;;;;;8.89;87.17;101027.63;5095587;28;20524;-71
2022/01/03 03:38:09;;;;;;;28.55;3.75;;;;;;;8.81;87.41;101024.13;5077300;28;20031;-71
2022/01/03 03:40:34;;;;;;;34.65;3.88;;;;;;;8.84;87.27;101023.00;5095528;28;20490;-71
2022/01/03 03:43:00;;;;;;;23.30;3.20;;;;;;;8.85;87.61;101034.91;5095369;28;20024;-72
2022/01/03 03:45:25;;;;;;;30.15;3.80;;;;;;;8.90;86.92;101027.47;5094869;28;20028;-71
2022/01/03 03:47:51;;;;;;;33.10;4.50;;;;;;;8.85;88.11;101031.53;5077181;28;20020;-71
2022/01/03 03:50:18;;;;;;;30.98;4.22;;;;;;;8.87;87.28;101027.81;5095260;28;20504;-71
2022/01/03 03:52:44;;;;;;;31.42;4.28;;;;;;;8.81;87.74;101025.91;5095003;28;20027;-71
2022/01/03 03:55:09;;;;;;;40.33;4.32;;;;;;;8.80;87.76;101027.69;5094994;28;20052;-70
2022/01/03 03:57:35;;;;;;;34.33;3.92;;;;;;;8.79;87.58;101028.63;5095473;28;20459;-71
2022/01/03 04:00:01;;;;;;;22.02;3.20;;;;;;;8.84;88.01;101028.16;5094796;28;20031;-71
2022/01/03 04:02:26;;;;;;;33.22;4.20;;;;;;;8.82;87.96;101036.03;5076927;28;20422;-72
2022/01/03 04:04:52;;;;;;;32.30;4.15;;;;;;;8.84;87.99;101038.44;5095005;28;20433;-72
2022/01/03 04:07:17;;;;;;;41.38;5.05;;;;;;;8.91;87.77;101038.56;5095002;28;20095;-72
2022/01/03 04:09:42;;;;;;;38.95;5.45;;;;;;;8.99;87.26;101023.88;5094939;28;20023;-72
2022/01/03 04:12:08;;;;;;;34.13;3.92;;;;;;;9.02;87.16;101028.69;5094743;28;20027;-72
2022/01/03 04:14:33;;;;;;;38.33;4.10;;;;;;;9.01;87.29;101024.50;5094796;28;20020;-72
2022/01/03 04:16:58;;;;;;;37.40;4.22;;;;;;;9.06;86.86;101028.34;5093465;28;20031;-72
2022/01/03 04:19:24;;;;;;;32.53;4.40;;;;;;;8.97;87.51;101028.38;5076566;28;20023;-72
2022/01/03 04:21:49;;;;;;;32.50;3.97;;;;;;;8.95;87.45;101007.16;5094633;28;20447;-72
2022/01/03 04:24:14;;;;;;;34.60;5.28;;;;;;;8.91;88.18;101023.91;5095218;28;20039;-73
2022/01/03 04:26:42;;;;;;;36.22;3.88;;;;;;;8.91;88.23;101007.66;5076503;28;20387;-72
2022/01/03 04:29:08;;;;;;;31.83;4.55;;;;;;;8.93;88.00;101008.28;5076597;28;20034;-72
2022/01/03 04:31:33;;;;;;;33.65;4.32;;;;;;;8.94;88.39;101010.69;5076227;28;20381;-72
2022/01/03 04:34:02;;;;;;;36.83;4.05;;;;;;;8.92;88.42;101004.09;5094147;28;20126;-72
2022/01/03 04:36:27;;;;;;;39.47;4.85;;;;;;;8.87;89.22;101014.91;5075723;28;20054;-71
2022/01/03 04:38:53;;;;;;;35.55;3.97;;;;;;;8.88;88.71;101013.94;5094366;28;20027;-72
2022/01/03 04:41:19;;;;;;;45.60;4.63;;;;;;;8.87;88.93;101009.75;5094405;28;20024;-71
2022/01/03 04:43:45;;;;;;;39.03;5.40;;;;;;;8.85;88.61;101009.13;5075981;28;20035;-71
2022/01/03 04:46:11;;;;;;;37.03;4.63;;;;;;;8.84;89.08;101001.56;5075965;28;20024;-71
2022/01/03 04:48:37;;;;;;;39.83;4.57;;;;;;;8.86;89.04;100997.88;5076066;28;20039;-70
2022/01/03 04:51:03;;;;;;;33.08;4.38;;;;;;;8.86;89.29;100999.63;5075903;28;20028;-70
2022/01/03 04:53:29;;;;;;;44.50;4.43;;;;;;;8.89;88.95;100994.13;5075865;28;20383;-71
2022/01/03 04:55:54;;;;;;;32.33;4.63;;;;;;;8.89;89.14;101000.09;5093651;28;20071;-71
2022/01/03 04:58:20;;;;;;;39.90;5.18;;;;;;;8.94;88.79;100997.78;5075907;28;20027;-70
2022/01/03 05:00:47;;;;;;;40.08;3.85;;;;;;;8.74;89.40;100974.22;5094002;28;20111;-72
2022/01/03 05:03:12;;;;;;;33.55;5.00;;;;;;;8.80;90.04;100985.63;5093953;28;20047;-71
2022/01/03 05:05:37;;;;;;;43.05;4.93;;;;;;;8.82;89.96;100987.06;5094208;28;20024;-70
2022/01/03 05:08:03;;;;;;;43.42;5.07;;;;;;;8.86;89.66;100994.47;5093972;28;20012;-71
2022/01/03 05:10:28;;;;;;;39.20;4.68;;;;;;;8.95;89.47;101006.34;5094075;28;20019;-72
2022/01/03 05:12:53;;;;;;;39.60;4.70;;;;;;;8.98;89.31;100988.75;5093343;28;20063;-71
2022/01/03 05:15:19;;;;;;;32.80;3.85;;;;;;;8.96;89.21;100990.69;5093793;28;20451;-72
2022/01/03 05:17:44;;;;;;;43.22;5.35;;;;;;;8.87;89.39;100971.09;5093789;28;20135;-71
2022/01/03 05:20:12;;;;;;;45.28;5.10;;;;;;;8.98;90.11;100993.13;5093740;28;20028;-71
2022/01/03 05:22:37;;;;;;;48.97;4.95;;;;;;;8.97;89.64;100984.56;5093706;28;20356;-71
2022/01/03 05:25:03;;;;;;;40.25;4.68;;;;;;;8.99;90.09;100985.19;5093713;28;20105;-70
2022/01/03 05:27:28;;;;;;;43.30;5.22;;;;;;;9.10;89.44;100985.78;5093624;28;20034;-72
2022/01/03 05:29:54;;;;;;;44.33;5.80;;;;;;;9.07;89.45;100983.56;5075540;28;20443;-72
2022/01/03 05:32:19;;;;;;;44.75;5.10;;;;;;;9.06;89.62;100979.34;5075454;28;20090;-71
2022/01/03 05:34:44;;;;;;;40.95;4.65;;;;;;;9.03;89.56;100975.34;5093812;28;20024;-72
2022/01/03 05:37:10;;;;;;;44.10;5.10;;;;;;;8.97;89.42;100976.03;5075515;28;20508;-72
2022/01/03 05:39:36;;;;;;;39.53;5.57;;;;;;;8.97;90.15;100976.03;5075559;28;20059;-72
2022/01/03 05:42:01;;;;;;;36.58;4.50;;;;;;;9.00;90.23;100967.94;5093815;28;20052;-71
2022/01/03 05:44:27;;;;;;;41.55;4.97;;;;;;;9.09;90.04;100968.69;5094803;28;20114;-72
2022/01/03 05:46:52;;;;;;;46.17;5.05;;;;;;;9.04;89.77;100964.88;5076055;28;20020;-72
2022/01/03 05:49:18;;;;;;;34.17;4.90;;;;;;;9.06;89.39;100959.53;5075593;28;20020;-71
2022/01/03 05:51:44;;;;;;;41.20;4.82;;;;;;;9.08;89.97;100970.47;5093435;28;20024;-73
2022/01/03 05:54:09;;;;;;;35.60;4.97;;;;;;;9.06;89.38;100966.47;5075821;28;20016;-71
2022/01/03 05:56:34;;;;;;;40.83;5.85;;;;;;;9.12;89.71;100965.78;5093068;28;20517;-71
2022/01/03 05:59:00;;;;;;;44.15;5.43;;;;;;;9.15;89.77;100962.84;5075075;28;20031;-72
2022/01/03 06:01:26;;;;;;;39.00;4.93;;;;;;;9.24;89.24;100967.00;5093465;28;20428;-71
2022/01/03 06:03:59;;;;;;;41.58;4.22;;;;;;;9.25;89.37;100971.16;5075564;28;20510;-72
2022/01/03 06:09:13;;;;;;;35.00;4.78;;;;;;;9.37;88.82;100967.19;5093737;28;20050;-72
2022/01/03 06:11:38;;;;;;;31.63;4.05;;;;;;;9.32;88.56;100954.03;5092886;28;20020;-72
2022/01/03 06:14:04;;;;;;;36.47;4.72;;;;;;;9.37;88.71;100953.50;5093387;28;20043;-71
2022/01/03 06:16:29;;;;;;;40.47;3.97;;;;;;;9.16;88.48;100913.69;5075008;28;20077;-72
2022/01/03 06:18:54;;;;;;;32.40;4.30;;;;;;;9.36;88.91;100950.13;5093593;28;20024;-72
2022/01/03 06:21:20;;;;;;;36.38;4.50;;;;;;;9.44;88.47;100955.22;5075095;28;20016;-72
2022/01/03 06:23:46;;;;;;;48.03;5.30;;;;;;;9.42;88.73;100944.25;5094562;28;20584;-70
2022/01/03 06:26:12;;;;;;;30.45;4.30;;;;;;;9.41;88.63;100945.25;5078824;28;20016;-72
2022/01/03 06:28:37;;;;;;;35.65;3.80;;;;;;;9.47;88.53;100946.31;5096763;28;20035;-72
2022/01/03 06:31:02;;;;;;;46.08;5.00;;;;;;;9.44;88.38;100949.25;5096620;28;20020;-72
2022/01/03 06:33:28;;;;;;;37.15;4.90;;;;;;;9.45;88.41;100940.53;5096702;28;20038;-72
2022/01/03 06:35:53;;;;;;;51.50;5.55;;;;;;;9.54;88.06;100946.41;5078567;28;20028;-73
2022/01/03 06:38:18;;;;;;;38.72;4.82;;;;;;;9.57;88.07;100951.22;5096801;28;20028;-72
2022/01/03 06:40:43;;;;;;;32.67;4.15;;;;;;;9.59;87.83;100950.06;5079630;28;20020;-73
2022/01/03 06:43:09;;;;;;;40.50;4.32;;;;;;;9.50;87.94;100943.38;5095653;28;20102;-72
2022/01/03 06:45:34;;;;;;;39.40;4.43;;;;;;;9.57;87.93;100935.75;5077139;28;20549;-73
2022/01/03 06:47:59;;;;;;;43.65;4.43;;;;;;;9.54;88.16;100938.69;5095537;28;20451;-72
2022/01/03 06:50:25;;;;;;;37.13;4.75;;;;;;;9.53;87.94;100948.19;5076930;28;20039;-71
2022/01/03 06:52:50;;;;;;;35.63;4.82;;;;;;;9.56;87.64;100934.16;5095903;28;20031;-72
2022/01/03 06:55:16;;;;;;;36.47;4.97;;;;;;;9.58;87.34;100930.41;5095488;28;20106;-71
2022/01/03 06:57:41;;;;;;;33.42;4.65;;;;;;;9.49;87.93;100918.56;5080799;28;20066;-72
2022/01/03 07:00:07;;;;;;;34.95;5.00;;;;;;;9.56;87.62;100931.56;5098764;28;20031;-72
2022/01/03 07:02:32;;;;;;;40.13;5.13;;;;;;;9.53;88.15;100935.31;5077810;28;20027;-71
2022/01/03 07:04:58;;;;;;;37.95;4.10;;;;;;;9.48;87.95;100922.91;5095992;28;20016;-72
2022/01/03 07:07:23;;;;;;;34.13;5.03;;;;;;;9.44;87.25;100910.56;5096159;28;20023;-71
2022/01/03 07:09:48;;;;;;;34.28;4.28;;;;;;;9.49;87.74;100934.03;5095662;28;20497;-71
2022/01/03 07:12:14;;;;;;;46.08;4.90;;;;;;;9.51;87.50;100936.44;5095165;28;20027;-71
2022/01/03 07:19:56;;;;;;;42.55;4.53;;;;;;;9.54;87.68;100926.56;5096808;28;20130;-72
2022/01/03 07:22:23;;;;;;;33.78;4.07;;;;;;;9.39;87.31;100907.69;5095756;28;20382;-71
2022/01/03 07:24:51;;;;;;;35.45;4.30;;;;;;;9.52;87.65;100922.56;5095524;28;20544;-72
2022/01/03 07:27:17;;;;;;;39.95;4.82;;;;;;;9.52;87.53;100931.09;5095530;28;20396;-72
2022/01/03 07:29:43;;;;;;;35.42;4.57;;;;;;;9.49;87.32;100934.84;5095464;28;20035;-72
2022/01/03 07:32:09;;;;;;;38.38;4.13;;;;;;;9.43;87.81;100934.72;5077429;28;20024;-72
2022/01/03 07:34:34;;;;;;;27.30;4.13;;;;;;;9.41;88.06;100928.97;5095242;28;20020;-71
2022/01/03 07:37:00;;;;;;;31.67;4.28;;;;;;;9.41;87.94;100934.13;5094999;28;20059;-71
2022/01/03 07:39:25;;;;;;;30.17;4.13;;;;;;;9.33;88.25;100940.16;5077232;28;20016;-73
2022/01/03 07:41:51;;;;;;;38.47;5.43;;;;;;;9.16;88.09;100903.38;5096174;28;20055;-74
2022/01/03 07:44:16;;;;;;;42.85;5.90;;;;;;;9.37;88.08;100941.41;5079350;28;20024;-72
2022/01/03 07:46:42;;;;;;;32.20;4.90;;;;;;;9.34;88.14;100964.97;5095389;28;20065;-72
2022/01/03 07:49:07;;;;;;;34.90;4.43;;;;;;;9.30;88.13;100950.03;5095278;28;20101;-69
2022/01/03 07:51:32;;;;;;;31.73;4.03;;;;;;;9.29;88.38;100948.41;5076953;28;20470;-71
2022/01/03 07:53:58;;;;;;;39.20;4.18;;;;;;;9.29;88.35;100956.13;5094988;28;20028;-71
2022/01/03 07:56:24;;;;;;;26.92;3.97;;;;;;;9.32;88.40;100955.78;5095142;28;20040;-71
2022/01/03 07:58:49;;;;;;;34.00;3.83;;;;;;;9.30;87.87;100961.13;5095193;28;20102;-71
2022/01/03 08:01:15;;;;;;;33.25;4.32;;;;;;;9.38;87.63;100963.66;5094999;28;20408;-71
2022/01/03 08:03:40;;;;;;;36.47;4.05;;;;;;;9.31;88.01;100949.84;5076227;28;20024;-71
2022/01/03 08:06:08;;;;;;;33.30;5.00;;;;;;;9.37;88.02;100954.28;5094206;28;20055;-72
2022/01/03 08:08:34;;;;;;;40.25;4.28;;;;;;;9.39;87.67;100961.88;5093857;28;20512;-71
2022/01/03 08:10:59;;;;;;;35.33;4.35;;;;;;;9.38;87.64;100947.34;5094691;28;20099;-71
2022/01/03 08:13:25;;;;;;;34.78;4.63;;;;;;;9.37;87.67;100949.13;5076599;28;20055;-72
2022/01/03 08:15:50;;;;;;;37.58;4.47;;;;;;;9.35;87.48;100958.00;5076979;28;20059;-71
2022/01/03 08:18:15;;;;;;;40.45;5.30;;;;;;;9.18;87.29;100909.19;5095383;28;20032;-71
2022/01/03 08:20:41;;;;;;;32.17;4.82;;;;;;;9.37;87.25;100950.91;5093799;28;20040;-71
2022/01/03 08:23:06;;;;;;;34.50;4.70;;;;;;;9.39;87.50;100948.97;5097924;28;20024;-72
2022/01/03 08:25:36;;;;;;;33.33;4.07;;;;;;;9.39;87.55;100949.75;5077851;28;20063;-72
2022/01/03 08:28:03;;;;;;;41.40;5.55;;;;;;;9.36;87.47;100944.97;5076923;28;20054;-72
2022/01/03 08:30:28;;;;;;;35.92;4.63;;;;;;;9.35;87.95;100950.28;5095344;28;20024;-71
2022/01/03 08:32:54;;;;;;;31.05;4.10;;;;;;;9.31;87.41;100957.56;5095000;28;20048;-73
2022/01/03 08:35:19;;;;;;;37.53;5.00;;;;;;;9.40;87.33;100953.94;5095212;28;20016;-71
2022/01/03 08:37:44;;;;;;;32.13;4.43;;;;;;;9.43;87.78;100958.75;5094730;28;20531;-72
2022/01/03 08:40:10;;;;;;;36.67;4.32;;;;;;;9.54;87.42;100959.31;5095541;28;20470;-70
2022/01/03 08:42:36;;;;;;;32.85;4.65;;;;;;;9.56;87.41;100950.44;5094675;28;20027;-71
2022/01/03 08:45:03;;;;;;;37.85;4.32;;;;;;;9.49;87.47;100944.34;5094463;28;20020;-71
2022/01/03 08:47:28;;;;;;;34.22;4.70;;;;;;;9.51;87.42;100947.56;5093785;28;20032;-71
2022/01/03 08:49:54;;;;;;;44.42;4.30;;;;;;;9.60;86.82;100964.56;5094269;28;20028;-71
2022/01/03 08:52:19;;;;;;;39.17;4.50;;;;;;;9.79;86.23;100958.09;5075994;28;20031;-70
2022/01/03 08:54:44;;;;;;;43.47;4.90;;;;;;;9.58;85.79;100929.59;5075770;28;20032;-72
2022/01/03 08:57:10;;;;;;;32.47;4.35;;;;;;;9.77;86.00;100956.69;5076077;28;20051;-71
2022/01/03 08:59:35;;;;;;;42.25;5.45;;;;;;;9.79;86.05;100971.00;5094440;28;20027;-70
2022/01/03 09:02:01;;;;;;;30.90;4.05;;;;;;;9.72;85.70;100959.78;5076263;28;20019;-69
2022/01/03 09:04:26;;;;;;;31.92;3.92;;;;;;;9.71;85.62;100960.75;5094275;28;20016;-71
2022/01/03 09:06:52;;;;;;;34.60;5.38;;;;;;;9.76;86.00;100961.03;5094309;28;20034;-71
2022/01/03 09:09:18;;;;;;;29.88;4.50;;;;;;;9.69;85.56;100962.72;5076260;28;20032;-71
2022/01/03 09:11:43;;;;;;;29.05;3.78;;;;;;;9.89;85.30;100961.22;5076099;28;20436;-72
2022/01/03 09:14:09;;;;;;;34.65;4.18;;;;;;;9.91;85.23;100959.25;5094349;28;20081;-72
2022/01/03 09:16:34;;;;;;;23.58;3.50;;;;;;;9.89;84.79;100957.81;5094295;28;20042;-71
2022/01/03 09:19:00;;;;;;;34.45;5.40;;;;;;;9.92;84.89;100955.69;5093613;28;20463;-72
2022/01/03 09:21:25;;;;;;;40.00;5.13;;;;;;;9.83;85.03;100951.59;5094772;28;20027;-71
2022/01/03 09:24:15;;;;;;;40.53;4.70;;;;;;;9.92;85.15;100939.41;5075843;28;20028;-70
2022/01/03 09:29:19;;;;;;;30.15;4.65;;;;;;;9.91;84.34;100930.88;5093928;28;20031;-70
2022/01/03 09:31:45;;;;;;;33.13;4.60;;;;;;;10.00;84.14;100944.47;5093857;28;20024;-69
2022/01/03 09:34:10;;;;;;;27.65;3.78;;;;;;;9.96;83.63;100920.00;5093836;28;20057;-71
2022/01/03 09:36:36;;;;;;;35.30;3.88;;;;;;;10.11;83.84;100953.56;5094436;28;20032;-71
2022/01/03 09:39:04;;;;;;;29.45;3.95;;;;;;;10.10;84.44;100946.81;5094330;28;20028;-72
2022/01/03 09:41:31;;;;;;;35.00;4.10;;;;;;;10.16;83.26;100944.28;5075964;28;20050;-72
2022/01/03 09:44:11;;;;;;;29.23;4.05;;;;;;;10.38;82.52;100945.16;5093876;28;20471;-70
2022/01/03 09:46:41;;;;;;;30.75;4.47;;;;;;;10.31;82.73;100933.19;5093677;28;20391;-71
2022/01/03 09:49:09;;;;;;;36.40;4.38;;;;;;;10.44;82.61;100940.25;5093790;28;20028;-71
2022/01/03 09:51:35;;;;;;;53.15;4.57;;;;;;;10.42;82.17;100937.09;5093427;28;20031;-71
2022/01/03 09:54:03;;;;;;;34.75;4.22;;;;;;;10.35;81.92;100911.16;5075244;28;20028;-72
2022/01/03 09:56:31;;;;;;;34.13;4.22;;;;;;;10.37;81.73;100901.44;5093198;28;20554;-71
2022/01/03 09:58:57;;;;;;;32.42;4.28;;;;;;;10.74;81.05;100928.06;5077040;28;20035;-71
2022/01/03 10:01:24;;;;;;;29.95;4.68;;;;;;;10.68;81.35;100929.59;5097104;28;20028;-72
2022/01/03 10:03:49;;;;;;;33.97;4.53;;;;;;;10.77;80.26;100923.31;5078828;28;20070;-71
2022/01/03 10:06:16;;;;;;;38.58;5.03;;;;;;;10.89;80.30;100931.38;5097870;28;20024;-72
2022/01/03 10:08:42;;;;;;;33.17;4.30;;;;;;;10.95;80.03;100925.47;5079273;28;20023;-71
2022/01/03 10:11:07;;;;;;;30.08;4.55;;;;;;;11.18;79.18;100927.84;5098207;28;20028;-71
2022/01/03 10:13:32;;;;;;;41.53;4.80;;;;;;;11.64;77.09;100913.63;5097634;28;20123;-71
2022/01/03 10:15:58;;;;;;;36.05;5.53;;;;;;;14.49;67.41;100914.69;5079204;28;20039;-72
2022/01/03 10:18:23;;;;;;;36.90;5.28;;;;;;;13.98;67.81;100911.13;5097269;28;20095;-73
2022/01/03 10:20:49;;;;;;;28.48;4.30;;;;;;;13.30;70.65;100919.31;5079001;28;20024;-72
2022/01/03 10:23:16;;;;;;;34.53;4.60;;;;;;;13.43;71.56;100921.06;5097183;28;20382;-72
2022/01/03 10:25:46;;;;;;;34.67;4.72;;;;;;;15.72;62.94;100920.13;5079119;28;20028;-71
2022/01/03 10:28:24;;;;;;;33.38;4.95;;;;;;;15.83;61.80;100910.00;5097713;28;20050;-72
2022/01/03 10:30:50;;;;;;;30.25;4.80;;;;;;;16.19;60.64;100911.75;5098134;28;20028;-73
2022/01/03 10:33:19;;;;;;;29.95;4.55;;;;;;;15.69;60.56;100923.16;5097255;28;20150;-71
2022/01/03 10:35:53;;;;;;;27.13;4.50;;;;;;;13.72;68.97;100927.59;5097650;28;20103;-71
2022/01/03 10:38:47;;;;;;;32.22;4.72;;;;;;;14.33;66.39;100898.59;5097483;28;20046;-71
2022/01/03 10:41:20;;;;;;;29.02;4.63;;;;;;;12.71;71.60;100914.84;5095204;28;20032;-72
2022/01/03 10:43:51;;;;;;;32.92;4.45;;;;;;;11.96;74.57;100909.66;5079198;28;20462;-71
2022/01/03 10:46:28;;;;;;;34.15;5.13;;;;;;;12.01;75.70;100917.66;5096799;28;20478;-71
2022/01/03 10:49:13;;;;;;;29.27;4.30;;;;;;;12.75;74.11;100919.47;5096846;28;20036;-72
2022/01/03 10:51:39;;;;;;;39.53;5.88;;;;;;;12.99;70.92;100905.09;5096401;28;20552;-72
2022/01/03 10:54:11;;;;;;;31.27;4.70;;;;;;;11.39;76.71;100910.69;5095543;28;20024;-71
2022/01/03 10:56:42;;;;;;;31.17;4.47;;;;;;;11.07;78.67;100897.31;5097637;28;20052;-73
2022/01/03 10:59:23;;;;;;;34.78;4.82;;;;;;;10.84;80.72;100911.25;5079494;28;20024;-72
2022/01/03 11:02:02;;;;;;;32.20;4.50;;;;;;;10.79;80.15;100905.84;5078239;28;20028;-72
2022/01/03 11:04:46;;;;;;;31.27;4.47;;;;;;;10.79;80.56;100907.66;5078092;28;20107;-71
2022/01/03 11:13:05;;;;;;;29.95;3.92;;;;;;;10.77;81.25;100905.22;5096357;28;20421;-71
2022/01/03 11:15:30;;;;;;;36.22;5.32;;;;;;;10.78;81.51;100906.03;5095966;28;20031;-71
2022/01/03 11:18:14;;;;;;;29.75;4.97;;;;;;;10.77;81.08;100899.25;5096452;28;20441;-71
2022/01/03 11:20:41;;;;;;;35.42;4.22;;;;;;;10.64;81.69;100894.75;5096423;28;20020;-71
2022/01/03 11:23:07;;;;;;;40.15;5.70;;;;;;;10.58;81.96;100898.06;5077759;28;20051;-70
2022/01/03 11:25:34;;;;;;;29.17;4.95;;;;;;;10.63;82.06;100885.41;5095776;28;20031;-71
2022/01/03 11:28:01;;;;;;;31.27;3.75;;;;;;;10.90;80.93;100878.69;5096212;28;20032;-71
2022/01/03 11:30:26;;;;;;;36.15;4.38;;;;;;;10.98;80.68;100875.19;5095757;28;20463;-71
2022/01/03 11:32:52;;;;;;;31.08;4.22;;;;;;;11.29;79.61;100861.88;5095900;28;20086;-71
2022/01/03 11:35:18;;;;;;;29.67;4.80;;;;;;;11.64;77.92;100864.47;5095766;28;20028;-72
2022/01/03 11:37:45;;;;;;;30.40;4.50;;;;;;;11.91;76.73;100860.22;5095355;28;20023;-71
2022/01/03 11:40:13;;;;;;;28.02;4.38;;;;;;;11.98;76.36;100853.28;5095370;28;20093;-71
2022/01/03 11:42:41;;;;;;;23.65;3.92;;;;;;;11.58;76.38;100860.06;5095352;28;20024;-71